sensor_id;sensor_type;location;lat;lon;timestamp;P1;durP1;ratioP1;P2;durP2;ratioP2
49890;SDS011;35780;55.568;37.492;2023-03-03T00:00:41;5.70;;;2.10;;
49890;SDS011;35780;55.568;37.492;2023-03-03T00:03:07;7.35;;;2.08;;
49890;SDS011;35780;55.568;37.492;2023-03-03T00:05:35;8.52;;;2.60;;
49890;SDS011;35780;55.568;37.492;2023-03-03T00:08:02;8.98;;;2.55;;
49890;SDS011;35780;55.568;37.492;2023-03-03T00:10:27;2.97;;;1.15;;
49890;SDS011;35780;55.568;37.492;2023-03-03T00:12:53;4.30;;;2.08;;
49890;SDS011;35780;55.568;37.492;2023-03-03T00:15:20;3.83;;;1.40;;
49890;SDS011;35780;55.568;37.492;2023-03-03T00:17:48;5.18;;;1.63;;
49890;SDS011;35780;55.568;37.492;2023-03-03T00:20:47;3.53;;;1.88;;
49890;SDS011;35780;55.568;37.492;2023-03-03T00:23:19;6.55;;;1.38;;
49890;SDS011;35780;55.568;37.492;2023-03-03T00:25:49;4.53;;;1.35;;
49890;SDS011;35780;55.568;37.492;2023-03-03T00:30:46;4.53;;;1.52;;
49890;SDS011;35780;55.568;37.492;2023-03-03T00:33:26;5.18;;;1.10;;
49890;SDS011;35780;55.568;37.492;2023-03-03T00:39:11;5.00;;;1.80;;
49890;SDS011;35780;55.568;37.492;2023-03-03T00:41:42;7.65;;;1.98;;
49890;SDS011;35780;55.568;37.492;2023-03-03T00:45:08;7.10;;;1.65;;
49890;SDS011;35780;55.568;37.492;2023-03-03T00:49:53;9.90;;;2.35;;
49890;SDS011;35780;55.568;37.492;2023-03-03T00:52:20;6.38;;;1.63;;
49890;SDS011;35780;55.568;37.492;2023-03-03T00:54:46;8.77;;;1.70;;
49890;SDS011;35780;55.568;37.492;2023-03-03T00:57:11;8.13;;;2.03;;
49890;SDS011;35780;55.568;37.492;2023-03-03T00:59:37;7.57;;;1.92;;
49890;SDS011;35780;55.568;37.492;2023-03-03T01:02:03;6.28;;;2.05;;
49890;SDS011;35780;55.568;37.492;2023-03-03T01:04:29;10.30;;;2.08;;
49890;SDS011;35780;55.568;37.492;2023-03-03T01:06:55;6.85;;;2.03;;
49890;SDS011;35780;55.568;37.492;2023-03-03T01:09:21;7.72;;;1.55;;
49890;SDS011;35780;55.568;37.492;2023-03-03T01:11:46;7.90;;;1.55;;
49890;SDS011;35780;55.568;37.492;2023-03-03T01:14:12;8.38;;;2.20;;
49890;SDS011;35780;55.568;37.492;2023-03-03T01:16:38;4.88;;;1.52;;
49890;SDS011;35780;55.568;37.492;2023-03-03T01:19:05;7.15;;;2.20;;
49890;SDS011;35780;55.568;37.492;2023-03-03T01:21:31;7.63;;;1.92;;
49890;SDS011;35780;55.568;37.492;2023-03-03T01:23:56;6.88;;;1.38;;
49890;SDS011;35780;55.568;37.492;2023-03-03T01:26:22;10.40;;;2.20;;
49890;SDS011;35780;55.568;37.492;2023-03-03T01:28:47;7.03;;;1.92;;
49890;SDS011;35780;55.568;37.492;2023-03-03T01:31:13;5.65;;;1.92;;
49890;SDS011;35780;55.568;37.492;2023-03-03T01:33:38;12.27;;;1.92;;
49890;SDS011;35780;55.568;37.492;2023-03-03T01:36:04;7.20;;;2.03;;
49890;SDS011;35780;55.568;37.492;2023-03-03T01:38:30;4.10;;;2.00;;
49890;SDS011;35780;55.568;37.492;2023-03-03T01:40:56;8.13;;;3.42;;
49890;SDS011;35780;55.568;37.492;2023-03-03T01:43:27;4.88;;;1.55;;
49890;SDS011;35780;55.568;37.492;2023-03-03T01:50:56;9.50;;;2.20;;
49890;SDS011;35780;55.568;37.492;2023-03-03T01:56:06;12.23;;;3.13;;
49890;SDS011;35780;55.568;37.492;2023-03-03T01:58:36;7.75;;;2.22;;
49890;SDS011;35780;55.568;37.492;2023-03-03T02:01:11;7.32;;;1.90;;
49890;SDS011;35780;55.568;37.492;2023-03-03T02:03:40;9.95;;;2.40;;
49890;SDS011;35780;55.568;37.492;2023-03-03T02:06:08;5.68;;;1.65;;
49890;SDS011;35780;55.568;37.492;2023-03-03T02:08:42;13.10;;;2.70;;
49890;SDS011;35780;55.568;37.492;2023-03-03T02:11:12;7.15;;;1.83;;
49890;SDS011;35780;55.568;37.492;2023-03-03T02:13:38;5.13;;;1.67;;
49890;SDS011;35780;55.568;37.492;2023-03-03T02:16:04;5.95;;;2.38;;
49890;SDS011;35780;55.568;37.492;2023-03-03T02:18:30;4.88;;;1.27;;
49890;SDS011;35780;55.568;37.492;2023-03-03T02:26:25;6.57;;;1.90;;
49890;SDS011;35780;55.568;37.492;2023-03-03T02:28:52;10.45;;;2.22;;
49890;SDS011;35780;55.568;37.492;2023-03-03T02:31:19;10.43;;;2.15;;
49890;SDS011;35780;55.568;37.492;2023-03-03T02:33:47;9.95;;;2.53;;
49890;SDS011;35780;55.568;37.492;2023-03-03T02:36:17;5.82;;;1.90;;
49890;SDS011;35780;55.568;37.492;2023-03-03T02:39:02;5.07;;;1.73;;
49890;SDS011;35780;55.568;37.492;2023-03-03T02:41:48;4.88;;;1.90;;
49890;SDS011;35780;55.568;37.492;2023-03-03T02:44:20;12.38;;;2.15;;
49890;SDS011;35780;55.568;37.492;2023-03-03T02:46:48;7.80;;;2.03;;
49890;SDS011;35780;55.568;37.492;2023-03-03T02:49:15;10.02;;;2.10;;
49890;SDS011;35780;55.568;37.492;2023-03-03T02:51:43;9.73;;;1.95;;
49890;SDS011;35780;55.568;37.492;2023-03-03T02:54:09;7.78;;;2.30;;
49890;SDS011;35780;55.568;37.492;2023-03-03T02:56:36;6.80;;;2.13;;
49890;SDS011;35780;55.568;37.492;2023-03-03T02:59:02;7.40;;;2.60;;
49890;SDS011;35780;55.568;37.492;2023-03-03T03:01:28;11.25;;;3.50;;
49890;SDS011;35780;55.568;37.492;2023-03-03T03:03:56;7.32;;;2.22;;
49890;SDS011;35780;55.568;37.492;2023-03-03T03:06:22;9.10;;;2.15;;
49890;SDS011;35780;55.568;37.492;2023-03-03T03:08:48;4.38;;;1.85;;
49890;SDS011;35780;55.568;37.492;2023-03-03T03:11:13;15.07;;;1.73;;
49890;SDS011;35780;55.568;37.492;2023-03-03T03:13:39;7.90;;;2.42;;
49890;SDS011;35780;55.568;37.492;2023-03-03T03:16:04;9.75;;;2.85;;
49890;SDS011;35780;55.568;37.492;2023-03-03T03:18:30;6.05;;;1.40;;
49890;SDS011;35780;55.568;37.492;2023-03-03T03:20:56;6.78;;;2.30;;
49890;SDS011;35780;55.568;37.492;2023-03-03T03:23:21;5.80;;;2.25;;
49890;SDS011;35780;55.568;37.492;2023-03-03T03:25:47;7.25;;;1.77;;
49890;SDS011;35780;55.568;37.492;2023-03-03T03:28:14;6.28;;;1.70;;
49890;SDS011;35780;55.568;37.492;2023-03-03T03:30:40;7.88;;;2.17;;
49890;SDS011;35780;55.568;37.492;2023-03-03T03:33:08;19.00;;;3.88;;
49890;SDS011;35780;55.568;37.492;2023-03-03T03:35:34;13.40;;;2.38;;
49890;SDS011;35780;55.568;37.492;2023-03-03T03:38:00;16.02;;;2.30;;
49890;SDS011;35780;55.568;37.492;2023-03-03T03:40:26;6.68;;;1.83;;
49890;SDS011;35780;55.568;37.492;2023-03-03T03:42:52;7.63;;;2.17;;
49890;SDS011;35780;55.568;37.492;2023-03-03T03:45:18;10.57;;;3.15;;
49890;SDS011;35780;55.568;37.492;2023-03-03T03:47:44;5.63;;;1.85;;
49890;SDS011;35780;55.568;37.492;2023-03-03T03:50:09;8.63;;;2.13;;
49890;SDS011;35780;55.568;37.492;2023-03-03T03:52:35;5.85;;;1.58;;
49890;SDS011;35780;55.568;37.492;2023-03-03T03:55:01;10.63;;;2.47;;
49890;SDS011;35780;55.568;37.492;2023-03-03T03:57:28;15.73;;;2.20;;
49890;SDS011;35780;55.568;37.492;2023-03-03T03:59:54;9.80;;;2.28;;
49890;SDS011;35780;55.568;37.492;2023-03-03T04:02:20;12.88;;;3.38;;
49890;SDS011;35780;55.568;37.492;2023-03-03T04:04:45;8.68;;;2.90;;
49890;SDS011;35780;55.568;37.492;2023-03-03T04:07:11;14.38;;;2.30;;
49890;SDS011;35780;55.568;37.492;2023-03-03T04:09:36;6.97;;;2.50;;
49890;SDS011;35780;55.568;37.492;2023-03-03T04:12:02;9.40;;;2.60;;
49890;SDS011;35780;55.568;37.492;2023-03-03T04:14:28;12.60;;;2.53;;
49890;SDS011;35780;55.568;37.492;2023-03-03T04:16:53;17.73;;;2.97;;
49890;SDS011;35780;55.568;37.492;2023-03-03T04:19:19;13.20;;;2.90;;
49890;SDS011;35780;55.568;37.492;2023-03-03T04:21:44;11.75;;;2.42;;
49890;SDS011;35780;55.568;37.492;2023-03-03T04:24:09;12.98;;;2.08;;
49890;SDS011;35780;55.568;37.492;2023-03-03T04:26:36;8.10;;;2.22;;
49890;SDS011;35780;55.568;37.492;2023-03-03T04:29:01;4.85;;;1.65;;
49890;SDS011;35780;55.568;37.492;2023-03-03T04:31:27;10.27;;;2.33;;
49890;SDS011;35780;55.568;37.492;2023-03-03T04:33:52;14.68;;;2.40;;
49890;SDS011;35780;55.568;37.492;2023-03-03T04:36:18;15.05;;;3.30;;
49890;SDS011;35780;55.568;37.492;2023-03-03T04:38:45;14.75;;;3.30;;
49890;SDS011;35780;55.568;37.492;2023-03-03T04:41:10;9.68;;;2.45;;
49890;SDS011;35780;55.568;37.492;2023-03-03T04:43:36;11.30;;;2.30;;
49890;SDS011;35780;55.568;37.492;2023-03-03T04:46:01;8.43;;;2.28;;
49890;SDS011;35780;55.568;37.492;2023-03-03T04:48:27;11.77;;;2.25;;
49890;SDS011;35780;55.568;37.492;2023-03-03T04:50:53;11.32;;;2.22;;
49890;SDS011;35780;55.568;37.492;2023-03-03T04:53:18;9.55;;;1.27;;
49890;SDS011;35780;55.568;37.492;2023-03-03T04:55:44;10.80;;;2.75;;
49890;SDS011;35780;55.568;37.492;2023-03-03T04:58:10;11.32;;;3.15;;
49890;SDS011;35780;55.568;37.492;2023-03-03T05:00:35;8.20;;;2.38;;
49890;SDS011;35780;55.568;37.492;2023-03-03T05:03:01;13.13;;;2.45;;
49890;SDS011;35780;55.568;37.492;2023-03-03T05:05:27;18.52;;;2.80;;
49890;SDS011;35780;55.568;37.492;2023-03-03T05:07:53;6.18;;;2.10;;
49890;SDS011;35780;55.568;37.492;2023-03-03T05:10:18;12.82;;;3.13;;
49890;SDS011;35780;55.568;37.492;2023-03-03T05:12:45;14.38;;;2.65;;
49890;SDS011;35780;55.568;37.492;2023-03-03T05:15:11;13.68;;;3.30;;
49890;SDS011;35780;55.568;37.492;2023-03-03T05:17:36;15.68;;;2.67;;
49890;SDS011;35780;55.568;37.492;2023-03-03T05:20:03;18.83;;;2.95;;
49890;SDS011;35780;55.568;37.492;2023-03-03T05:22:30;14.15;;;2.70;;
49890;SDS011;35780;55.568;37.492;2023-03-03T05:24:55;10.40;;;3.15;;
49890;SDS011;35780;55.568;37.492;2023-03-03T05:27:21;16.70;;;2.92;;
49890;SDS011;35780;55.568;37.492;2023-03-03T05:29:47;12.52;;;3.55;;
49890;SDS011;35780;55.568;37.492;2023-03-03T05:32:13;11.43;;;3.28;;
49890;SDS011;35780;55.568;37.492;2023-03-03T05:34:39;12.18;;;2.17;;
49890;SDS011;35780;55.568;37.492;2023-03-03T05:37:04;3.30;;;1.25;;
49890;SDS011;35780;55.568;37.492;2023-03-03T05:39:31;11.07;;;2.30;;
49890;SDS011;35780;55.568;37.492;2023-03-03T05:41:57;20.90;;;2.70;;
49890;SDS011;35780;55.568;37.492;2023-03-03T05:44:24;9.05;;;2.75;;
49890;SDS011;35780;55.568;37.492;2023-03-03T05:46:50;22.58;;;2.70;;
49890;SDS011;35780;55.568;37.492;2023-03-03T05:49:16;8.27;;;2.67;;
49890;SDS011;35780;55.568;37.492;2023-03-03T05:51:41;8.07;;;2.50;;
49890;SDS011;35780;55.568;37.492;2023-03-03T05:54:07;10.63;;;2.53;;
49890;SDS011;35780;55.568;37.492;2023-03-03T05:56:33;12.00;;;3.85;;
49890;SDS011;35780;55.568;37.492;2023-03-03T05:58:58;9.68;;;2.35;;
49890;SDS011;35780;55.568;37.492;2023-03-03T06:01:24;10.75;;;3.65;;
49890;SDS011;35780;55.568;37.492;2023-03-03T06:03:51;9.93;;;2.67;;
49890;SDS011;35780;55.568;37.492;2023-03-03T06:06:17;11.30;;;2.50;;
49890;SDS011;35780;55.568;37.492;2023-03-03T06:08:43;12.35;;;2.30;;
49890;SDS011;35780;55.568;37.492;2023-03-03T06:11:09;10.55;;;2.88;;
49890;SDS011;35780;55.568;37.492;2023-03-03T06:13:35;15.35;;;2.85;;
49890;SDS011;35780;55.568;37.492;2023-03-03T06:16:00;15.95;;;2.80;;
49890;SDS011;35780;55.568;37.492;2023-03-03T06:18:26;16.85;;;2.90;;
49890;SDS011;35780;55.568;37.492;2023-03-03T06:20:52;13.63;;;2.50;;
49890;SDS011;35780;55.568;37.492;2023-03-03T06:23:18;14.18;;;2.30;;
49890;SDS011;35780;55.568;37.492;2023-03-03T06:25:43;15.93;;;3.42;;
49890;SDS011;35780;55.568;37.492;2023-03-03T06:28:09;13.02;;;2.97;;
49890;SDS011;35780;55.568;37.492;2023-03-03T06:30:34;12.52;;;3.03;;
49890;SDS011;35780;55.568;37.492;2023-03-03T06:33:00;16.60;;;2.95;;
49890;SDS011;35780;55.568;37.492;2023-03-03T06:35:25;10.75;;;2.90;;
49890;SDS011;35780;55.568;37.492;2023-03-03T06:37:51;12.07;;;2.97;;
49890;SDS011;35780;55.568;37.492;2023-03-03T06:40:17;9.07;;;2.05;;
49890;SDS011;35780;55.568;37.492;2023-03-03T06:42:42;12.13;;;2.35;;
49890;SDS011;35780;55.568;37.492;2023-03-03T06:45:08;19.85;;;4.32;;
49890;SDS011;35780;55.568;37.492;2023-03-03T06:47:34;8.63;;;2.70;;
49890;SDS011;35780;55.568;37.492;2023-03-03T06:49:59;13.32;;;2.38;;
49890;SDS011;35780;55.568;37.492;2023-03-03T06:52:25;10.50;;;2.65;;
49890;SDS011;35780;55.568;37.492;2023-03-03T06:54:55;12.32;;;2.90;;
49890;SDS011;35780;55.568;37.492;2023-03-03T07:02:34;13.25;;;1.90;;
49890;SDS011;35780;55.568;37.492;2023-03-03T07:05:00;8.43;;;2.55;;
49890;SDS011;35780;55.568;37.492;2023-03-03T07:07:25;9.25;;;2.42;;
49890;SDS011;35780;55.568;37.492;2023-03-03T07:09:52;14.50;;;2.45;;
49890;SDS011;35780;55.568;37.492;2023-03-03T07:12:20;16.70;;;2.97;;
49890;SDS011;35780;55.568;37.492;2023-03-03T07:14:48;8.32;;;2.50;;
49890;SDS011;35780;55.568;37.492;2023-03-03T07:17:20;6.95;;;2.28;;
49890;SDS011;35780;55.568;37.492;2023-03-03T07:19:46;9.88;;;2.10;;
49890;SDS011;35780;55.568;37.492;2023-03-03T07:24:38;9.85;;;2.15;;
49890;SDS011;35780;55.568;37.492;2023-03-03T07:29:29;4.55;;;1.77;;
49890;SDS011;35780;55.568;37.492;2023-03-03T07:31:56;8.50;;;1.98;;
49890;SDS011;35780;55.568;37.492;2023-03-03T07:34:38;8.85;;;2.08;;
49890;SDS011;35780;55.568;37.492;2023-03-03T07:39:58;10.05;;;2.25;;
49890;SDS011;35780;55.568;37.492;2023-03-03T07:42:25;10.80;;;2.72;;
49890;SDS011;35780;55.568;37.492;2023-03-03T07:44:54;8.77;;;2.20;;
49890;SDS011;35780;55.568;37.492;2023-03-03T07:49:51;7.28;;;2.20;;
49890;SDS011;35780;55.568;37.492;2023-03-03T08:03:39;12.05;;;3.50;;
49890;SDS011;35780;55.568;37.492;2023-03-03T08:11:56;6.97;;;2.63;;
49890;SDS011;35780;55.568;37.492;2023-03-03T08:14:36;6.72;;;2.17;;
49890;SDS011;35780;55.568;37.492;2023-03-03T08:17:06;8.40;;;2.42;;
49890;SDS011;35780;55.568;37.492;2023-03-03T08:19:52;7.57;;;2.08;;
49890;SDS011;35780;55.568;37.492;2023-03-03T08:24:54;9.05;;;2.40;;
49890;SDS011;35780;55.568;37.492;2023-03-03T08:27:19;5.85;;;1.80;;
49890;SDS011;35780;55.568;37.492;2023-03-03T08:29:45;10.35;;;2.53;;
49890;SDS011;35780;55.568;37.492;2023-03-03T08:32:10;8.70;;;2.28;;
49890;SDS011;35780;55.568;37.492;2023-03-03T08:34:36;9.48;;;2.83;;
49890;SDS011;35780;55.568;37.492;2023-03-03T08:37:01;7.45;;;1.95;;
49890;SDS011;35780;55.568;37.492;2023-03-03T08:39:27;9.88;;;2.53;;
49890;SDS011;35780;55.568;37.492;2023-03-03T08:41:52;7.60;;;2.50;;
49890;SDS011;35780;55.568;37.492;2023-03-03T08:44:18;11.73;;;2.92;;
49890;SDS011;35780;55.568;37.492;2023-03-03T08:46:44;10.75;;;2.63;;
49890;SDS011;35780;55.568;37.492;2023-03-03T08:49:10;7.88;;;2.35;;
49890;SDS011;35780;55.568;37.492;2023-03-03T08:51:35;8.68;;;2.60;;
49890;SDS011;35780;55.568;37.492;2023-03-03T08:54:01;11.05;;;2.50;;
49890;SDS011;35780;55.568;37.492;2023-03-03T08:56:27;9.43;;;3.20;;
49890;SDS011;35780;55.568;37.492;2023-03-03T08:58:52;6.53;;;2.70;;
49890;SDS011;35780;55.568;37.492;2023-03-03T09:01:18;12.68;;;3.05;;
49890;SDS011;35780;55.568;37.492;2023-03-03T09:03:43;10.98;;;3.22;;
49890;SDS011;35780;55.568;37.492;2023-03-03T09:06:09;11.25;;;4.05;;
49890;SDS011;35780;55.568;37.492;2023-03-03T09:08:36;11.52;;;3.40;;
49890;SDS011;35780;55.568;37.492;2023-03-03T09:11:02;11.80;;;3.95;;
49890;SDS011;35780;55.568;37.492;2023-03-03T09:13:34;10.95;;;3.78;;
49890;SDS011;35780;55.568;37.492;2023-03-03T09:15:59;9.82;;;3.15;;
49890;SDS011;35780;55.568;37.492;2023-03-03T09:18:34;7.95;;;2.47;;
49890;SDS011;35780;55.568;37.492;2023-03-03T09:21:01;7.70;;;2.20;;
49890;SDS011;35780;55.568;37.492;2023-03-03T09:23:34;10.25;;;2.75;;
49890;SDS011;35780;55.568;37.492;2023-03-03T09:28:35;9.10;;;2.28;;
49890;SDS011;35780;55.568;37.492;2023-03-03T09:31:02;7.95;;;2.33;;
49890;SDS011;35780;55.568;37.492;2023-03-03T09:33:45;10.80;;;2.42;;
49890;SDS011;35780;55.568;37.492;2023-03-03T09:36:34;11.82;;;2.63;;
49890;SDS011;35780;55.568;37.492;2023-03-03T09:39:03;11.20;;;2.63;;
49890;SDS011;35780;55.568;37.492;2023-03-03T09:49:52;7.30;;;2.03;;
49890;SDS011;35780;55.568;37.492;2023-03-03T10:08:53;6.78;;;2.30;;
49890;SDS011;35780;55.568;37.492;2023-03-03T10:16:42;7.80;;;2.28;;
49890;SDS011;35780;55.568;37.492;2023-03-03T10:24:44;8.95;;;3.13;;
49890;SDS011;35780;55.568;37.492;2023-03-03T10:27:24;6.65;;;2.15;;
49890;SDS011;35780;55.568;37.492;2023-03-03T10:30:12;7.97;;;2.33;;
49890;SDS011;35780;55.568;37.492;2023-03-03T10:35:27;10.57;;;2.50;;
49890;SDS011;35780;55.568;37.492;2023-03-03T10:41:03;8.05;;;2.45;;
49890;SDS011;35780;55.568;37.492;2023-03-03T10:57:25;12.02;;;2.92;;
49890;SDS011;35780;55.568;37.492;2023-03-03T11:05:49;5.35;;;2.20;;
49890;SDS011;35780;55.568;37.492;2023-03-03T11:08:38;5.45;;;2.25;;
49890;SDS011;35780;55.568;37.492;2023-03-03T11:32:15;10.10;;;3.15;;
49890;SDS011;35780;55.568;37.492;2023-03-03T11:34:55;8.75;;;2.70;;
49890;SDS011;35780;55.568;37.492;2023-03-03T11:37:28;8.30;;;3.33;;
49890;SDS011;35780;55.568;37.492;2023-03-03T11:40:08;10.68;;;3.00;;
49890;SDS011;35780;55.568;37.492;2023-03-03T11:45:47;5.20;;;2.15;;
49890;SDS011;35780;55.568;37.492;2023-03-03T11:48:15;6.03;;;2.38;;
49890;SDS011;35780;55.568;37.492;2023-03-03T11:50:47;6.82;;;2.65;;
49890;SDS011;35780;55.568;37.492;2023-03-03T11:54:03;5.35;;;1.92;;
49890;SDS011;35780;55.568;37.492;2023-03-03T11:56:33;10.57;;;2.90;;
49890;SDS011;35780;55.568;37.492;2023-03-03T12:04:18;7.25;;;1.88;;
49890;SDS011;35780;55.568;37.492;2023-03-03T12:06:52;9.13;;;2.25;;
49890;SDS011;35780;55.568;37.492;2023-03-03T12:09:55;11.63;;;2.03;;
49890;SDS011;35780;55.568;37.492;2023-03-03T12:12:26;4.03;;;1.58;;
49890;SDS011;35780;55.568;37.492;2023-03-03T12:20:39;8.07;;;2.20;;
49890;SDS011;35780;55.568;37.492;2023-03-03T12:25:53;5.13;;;1.63;;
49890;SDS011;35780;55.568;37.492;2023-03-03T12:28:36;4.63;;;1.42;;
49890;SDS011;35780;55.568;37.492;2023-03-03T12:41:59;6.53;;;1.70;;
49890;SDS011;35780;55.568;37.492;2023-03-03T12:55:24;5.72;;;1.63;;
49890;SDS011;35780;55.568;37.492;2023-03-03T13:05:59;10.23;;;2.28;;
49890;SDS011;35780;55.568;37.492;2023-03-03T13:11:15;8.30;;;2.30;;
49890;SDS011;35780;55.568;37.492;2023-03-03T13:16:38;3.63;;;1.65;;
49890;SDS011;35780;55.568;37.492;2023-03-03T13:19:10;6.40;;;1.97;;
49890;SDS011;35780;55.568;37.492;2023-03-03T13:27:06;7.55;;;2.53;;
49890;SDS011;35780;55.568;37.492;2023-03-03T13:29:43;6.28;;;2.17;;
49890;SDS011;35780;55.568;37.492;2023-03-03T13:32:40;5.93;;;2.50;;
49890;SDS011;35780;55.568;37.492;2023-03-03T13:35:08;5.53;;;2.35;;
49890;SDS011;35780;55.568;37.492;2023-03-03T13:37:44;9.00;;;3.33;;
49890;SDS011;35780;55.568;37.492;2023-03-03T13:45:14;6.85;;;2.35;;
49890;SDS011;35780;55.568;37.492;2023-03-03T13:53:05;10.88;;;2.75;;
49890;SDS011;35780;55.568;37.492;2023-03-03T13:55:43;5.28;;;1.77;;
49890;SDS011;35780;55.568;37.492;2023-03-03T13:58:31;5.28;;;1.65;;
49890;SDS011;35780;55.568;37.492;2023-03-03T14:03:33;12.05;;;2.38;;
49890;SDS011;35780;55.568;37.492;2023-03-03T14:06:27;12.45;;;2.65;;
49890;SDS011;35780;55.568;37.492;2023-03-03T14:11:29;7.30;;;1.88;;
49890;SDS011;35780;55.568;37.492;2023-03-03T14:16:50;5.82;;;2.28;;
49890;SDS011;35780;55.568;37.492;2023-03-03T14:22:10;8.52;;;2.35;;
49890;SDS011;35780;55.568;37.492;2023-03-03T14:24:53;7.90;;;3.33;;
49890;SDS011;35780;55.568;37.492;2023-03-03T14:27:40;7.57;;;1.73;;
49890;SDS011;35780;55.568;37.492;2023-03-03T14:35:37;7.07;;;2.67;;
49890;SDS011;35780;55.568;37.492;2023-03-03T14:40:32;7.18;;;2.08;;
49890;SDS011;35780;55.568;37.492;2023-03-03T14:43:00;9.95;;;2.50;;
49890;SDS011;35780;55.568;37.492;2023-03-03T14:48:04;6.43;;;2.83;;
49890;SDS011;35780;55.568;37.492;2023-03-03T14:50:43;4.78;;;2.03;;
49890;SDS011;35780;55.568;37.492;2023-03-03T14:55:43;9.20;;;3.00;;
49890;SDS011;35780;55.568;37.492;2023-03-03T14:58:34;4.93;;;2.35;;
49890;SDS011;35780;55.568;37.492;2023-03-03T15:01:07;11.73;;;2.67;;
49890;SDS011;35780;55.568;37.492;2023-03-03T15:03:36;6.57;;;2.33;;
49890;SDS011;35780;55.568;37.492;2023-03-03T15:06:06;10.80;;;2.78;;
49890;SDS011;35780;55.568;37.492;2023-03-03T15:08:39;7.40;;;3.00;;
49890;SDS011;35780;55.568;37.492;2023-03-03T15:14:03;7.13;;;2.72;;
49890;SDS011;35780;55.568;37.492;2023-03-03T15:16:49;7.82;;;2.63;;
49890;SDS011;35780;55.568;37.492;2023-03-03T15:21:58;4.22;;;2.40;;
49890;SDS011;35780;55.568;37.492;2023-03-03T15:24:52;11.55;;;2.78;;
49890;SDS011;35780;55.568;37.492;2023-03-03T15:27:20;8.68;;;3.22;;
49890;SDS011;35780;55.568;37.492;2023-03-03T15:30:10;10.27;;;2.53;;
49890;SDS011;35780;55.568;37.492;2023-03-03T15:33:04;6.07;;;2.30;;
49890;SDS011;35780;55.568;37.492;2023-03-03T15:38:56;10.00;;;3.53;;
49890;SDS011;35780;55.568;37.492;2023-03-03T15:46:53;7.57;;;2.45;;
49890;SDS011;35780;55.568;37.492;2023-03-03T15:54:25;11.27;;;3.60;;
49890;SDS011;35780;55.568;37.492;2023-03-03T16:02:38;11.70;;;3.72;;
49890;SDS011;35780;55.568;37.492;2023-03-03T16:05:12;9.85;;;3.72;;
49890;SDS011;35780;55.568;37.492;2023-03-03T16:27:12;30.25;;;9.13;;
49890;SDS011;35780;55.568;37.492;2023-03-03T16:32:29;29.73;;;10.15;;
49890;SDS011;35780;55.568;37.492;2023-03-03T16:35:13;40.58;;;12.43;;
49890;SDS011;35780;55.568;37.492;2023-03-03T16:38:02;24.48;;;8.70;;
49890;SDS011;35780;55.568;37.492;2023-03-03T16:40:37;16.17;;;5.28;;
49890;SDS011;35780;55.568;37.492;2023-03-03T16:45:48;12.13;;;4.25;;
49890;SDS011;35780;55.568;37.492;2023-03-03T16:48:21;12.35;;;4.45;;
49890;SDS011;35780;55.568;37.492;2023-03-03T16:54:05;11.90;;;4.25;;
49890;SDS011;35780;55.568;37.492;2023-03-03T16:56:39;7.18;;;2.85;;
49890;SDS011;35780;55.568;37.492;2023-03-03T17:07:08;24.48;;;8.73;;
49890;SDS011;35780;55.568;37.492;2023-03-03T17:10:01;8.77;;;3.17;;
49890;SDS011;35780;55.568;37.492;2023-03-03T17:12:41;6.68;;;3.20;;
49890;SDS011;35780;55.568;37.492;2023-03-03T17:15:21;8.07;;;3.33;;
49890;SDS011;35780;55.568;37.492;2023-03-03T17:18:08;7.97;;;2.90;;
49890;SDS011;35780;55.568;37.492;2023-03-03T17:20:46;8.43;;;2.97;;
49890;SDS011;35780;55.568;37.492;2023-03-03T17:24:14;6.70;;;2.55;;
49890;SDS011;35780;55.568;37.492;2023-03-03T17:26:21;7.70;;;2.10;;
49890;SDS011;35780;55.568;37.492;2023-03-03T17:31:39;5.28;;;2.80;;
49890;SDS011;35780;55.568;37.492;2023-03-03T17:43:12;9.40;;;3.03;;
49890;SDS011;35780;55.568;37.492;2023-03-03T17:45:41;9.20;;;1.95;;
49890;SDS011;35780;55.568;37.492;2023-03-03T18:02:23;8.93;;;2.60;;
49890;SDS011;35780;55.568;37.492;2023-03-03T18:05:12;9.90;;;2.85;;
49890;SDS011;35780;55.568;37.492;2023-03-03T18:21:26;7.75;;;2.42;;
49890;SDS011;35780;55.568;37.492;2023-03-03T18:27:11;10.20;;;3.83;;
49890;SDS011;35780;55.568;37.492;2023-03-03T18:33:05;8.60;;;2.42;;
49890;SDS011;35780;55.568;37.492;2023-03-03T18:35:37;7.68;;;2.83;;
49890;SDS011;35780;55.568;37.492;2023-03-03T18:40:51;5.38;;;2.47;;
49890;SDS011;35780;55.568;37.492;2023-03-03T18:46:53;9.07;;;2.40;;
49890;SDS011;35780;55.568;37.492;2023-03-03T18:49:01;9.43;;;2.47;;
49890;SDS011;35780;55.568;37.492;2023-03-03T19:04:39;9.75;;;2.50;;
49890;SDS011;35780;55.568;37.492;2023-03-03T19:09:55;6.82;;;2.33;;
49890;SDS011;35780;55.568;37.492;2023-03-03T19:21:05;8.20;;;2.80;;
49890;SDS011;35780;55.568;37.492;2023-03-03T19:40:14;9.00;;;3.30;;
49890;SDS011;35780;55.568;37.492;2023-03-03T19:42:44;11.07;;;3.13;;
49890;SDS011;35780;55.568;37.492;2023-03-03T19:48:24;12.95;;;3.80;;
49890;SDS011;35780;55.568;37.492;2023-03-03T19:53:36;11.15;;;3.53;;
49890;SDS011;35780;55.568;37.492;2023-03-03T20:14:58;11.55;;;4.65;;
49890;SDS011;35780;55.568;37.492;2023-03-03T20:20:55;9.10;;;3.30;;
49890;SDS011;35780;55.568;37.492;2023-03-03T20:29:15;12.55;;;4.85;;
49890;SDS011;35780;55.568;37.492;2023-03-03T20:32:14;9.32;;;2.58;;
49890;SDS011;35780;55.568;37.492;2023-03-03T20:37:28;7.40;;;2.60;;
49890;SDS011;35780;55.568;37.492;2023-03-03T20:48:31;12.70;;;4.72;;
49890;SDS011;35780;55.568;37.492;2023-03-03T20:51:07;11.77;;;4.55;;
49890;SDS011;35780;55.568;37.492;2023-03-03T21:05:05;13.88;;;3.67;;
49890;SDS011;35780;55.568;37.492;2023-03-03T21:07:34;12.38;;;4.35;;
49890;SDS011;35780;55.568;37.492;2023-03-03T21:12:35;11.70;;;4.43;;
49890;SDS011;35780;55.568;37.492;2023-03-03T21:15:01;15.15;;;4.70;;
49890;SDS011;35780;55.568;37.492;2023-03-03T21:17:46;16.83;;;5.13;;
49890;SDS011;35780;55.568;37.492;2023-03-03T21:20:25;13.70;;;4.72;;
49890;SDS011;35780;55.568;37.492;2023-03-03T21:22:59;11.07;;;3.60;;
49890;SDS011;35780;55.568;37.492;2023-03-03T21:25:45;12.38;;;3.95;;
49890;SDS011;35780;55.568;37.492;2023-03-03T21:36:13;14.18;;;4.10;;
49890;SDS011;35780;55.568;37.492;2023-03-03T21:38:41;13.15;;;4.30;;
49890;SDS011;35780;55.568;37.492;2023-03-03T21:41:07;6.72;;;3.03;;
49890;SDS011;35780;55.568;37.492;2023-03-03T21:43:33;7.00;;;2.85;;
49890;SDS011;35780;55.568;37.492;2023-03-03T21:46:00;8.55;;;2.92;;
49890;SDS011;35780;55.568;37.492;2023-03-03T21:48:26;11.70;;;3.70;;
49890;SDS011;35780;55.568;37.492;2023-03-03T21:50:51;10.73;;;3.25;;
49890;SDS011;35780;55.568;37.492;2023-03-03T21:53:17;5.82;;;3.17;;
49890;SDS011;35780;55.568;37.492;2023-03-03T21:55:43;13.32;;;3.83;;
49890;SDS011;35780;55.568;37.492;2023-03-03T21:58:13;10.35;;;3.65;;
49890;SDS011;35780;55.568;37.492;2023-03-03T22:00:39;10.77;;;3.65;;
49890;SDS011;35780;55.568;37.492;2023-03-03T22:03:04;10.25;;;3.47;;
49890;SDS011;35780;55.568;37.492;2023-03-03T22:05:30;9.73;;;3.38;;
49890;SDS011;35780;55.568;37.492;2023-03-03T22:07:55;9.50;;;3.40;;
49890;SDS011;35780;55.568;37.492;2023-03-03T22:10:21;9.60;;;4.35;;
49890;SDS011;35780;55.568;37.492;2023-03-03T22:12:46;8.05;;;3.30;;
49890;SDS011;35780;55.568;37.492;2023-03-03T22:15:12;10.63;;;3.83;;
49890;SDS011;35780;55.568;37.492;2023-03-03T22:17:37;9.45;;;3.70;;
49890;SDS011;35780;55.568;37.492;2023-03-03T22:20:05;15.52;;;5.28;;